ドバイ の空港の天気 - METARとTAF

ドバイ国際空港 ( OMDB / DXB ) - アラブ首長国連邦 ドバイ
飛行場実況気象(Metar)
観測時間05/27 03:00 GST (05/26 23:00 UTC)
風向・風速西 2m/s
視程10km以上
天気現象
なし
気温32℃
湿度46%
気圧1007hPa
METAROMDB 262300Z 28003KT 250V320 CAVOK 32/19 Q1007 NOSIG
過去の天気等 Google飛行場航空写真 Wunderground天気予報

過去48時間のMETAR

飛行場予報(TAF)
発表時間: 5/27 03:01 GST (5/26 23:01 UTC)
予報対象時間: 27日4時 GST ~ 28日10時 GST
風向・風速不定 1m/s
視程10km以上
なし
27日11時 GST ~ 27日13時 GST に徐々に
風向・風速西北西 6m/s
27日20時 GST ~ 27日22時 GST に徐々に
風向・風速南南東 3m/s
TAF OMDB 262301Z 2700/2806 VRB02KT CAVOK
BECMG 2707/2709 29012KT
BECMG 2716/2718 16005KT